Time;durP1;ratioP1;P1;durP2;ratioP2;P2;SDS_P1;SDS_P2;PMS_P1;PMS_P2;Temp;Humidity;BMP_temperature;BMP_pressure;BME280_temperature;BME280_humidity;BME280_pressure;Samples;Min_cycle;Max_cycle;Signal;HPM_P1;HPM_P2
2022/11/29 00:01:33;;;;;;;;;;;;;;;;;;5073789;28;19927;-85
2022/11/29 00:03:58;;;;;;;;;;;;;;;;;;5075335;28;20244;-86
2022/11/29 00:06:26;;;;;;;;;;;;;;;;;;5075526;28;20006;-86
2022/11/29 00:08:52;;;;;;;;;;;;;;;;;;5075552;28;20016;-86
2022/11/29 00:14:13;;;;;;;;;;;;;;;;;;5077420;28;19927;-86
2022/11/29 00:16:41;;;;;;;;;;;;;;;;;;5060107;28;19920;-85
2022/11/29 00:19:08;;;;;;;;;;;;;;;;;;5077608;28;19924;-84
2022/11/29 00:21:33;;;;;;;;;;;;;;;;;;5057051;28;19942;-86
2022/11/29 00:23:59;;;;;;;;;;;;;;;;;;5057411;28;19916;-86
2022/11/29 00:26:24;;;;;;;;;;;;;;;;;;5075293;28;20003;-85
2022/11/29 00:28:50;;;;;;;;;;;;;;;;;;5074959;28;20322;-86
2022/11/29 00:31:23;;;;;;;;;;;;;;;;;;5075153;28;19917;-86
2022/11/29 00:33:49;;;;;;;;;;;;;;;;;;5074974;28;19916;-85
2022/11/29 00:36:14;;;;;;;;;;;;;;;;;;5075041;28;20348;-85
2022/11/29 00:38:40;;;;;;;;;;;;;;;;;;5056892;28;19962;-87
2022/11/29 00:41:06;;;;;;;;;;;;;;;;;;5056993;28;20296;-87
2022/11/29 00:43:32;;;;;;;;;;;;;;;;;;5074533;28;19924;-86
2022/11/29 00:45:57;;;;;;;;;;;;;;;;;;5074666;28;19955;-87
2022/11/29 00:48:23;;;;;;;;;;;;;;;;;;5056858;28;19917;-86
2022/11/29 00:50:49;;;;;;;;;;;;;;;;;;5074643;28;19916;-86
2022/11/29 00:53:15;;;;;;;;;;;;;;;;;;5056854;28;20400;-85
2022/11/29 00:55:40;;;;;;;;;;;;;;;;;;5074218;28;19927;-85
2022/11/29 00:58:06;;;;;;;;;;;;;;;;;;5074743;28;19921;-85
2022/11/29 01:00:31;;;;;;;;;;;;;;;;;;5056504;28;20300;-86
2022/11/29 01:02:57;;;;;;;;;;;;;;;;;;5074303;28;19923;-86
2022/11/29 01:05:22;;;;;;;;;;;;;;;;;;5074210;28;19924;-86
2022/11/29 01:07:47;;;;;;;;;;;;;;;;;;5074263;28;19917;-85
2022/11/29 01:10:13;;;;;;;;;;;;;;;;;;5074578;28;19923;-85
2022/11/29 01:12:38;;;;;;;;;;;;;;;;;;5055552;28;19920;-86
2022/11/29 01:15:05;;;;;;;;;;;;;;;;;;5074144;28;19916;-85
2022/11/29 01:17:30;;;;;;;;;;;;;;;;;;5074136;28;20002;-84
2022/11/29 01:19:56;;;;;;;;;;;;;;;;;;5055824;28;20015;-85
2022/11/29 01:25:25;;;;;;;;;;;;;;;;;;5072636;28;19922;-86
2022/11/29 01:27:50;;;;;;;;;;;;;;;;;;5056354;28;19916;-87
2022/11/29 01:30:15;;;;;;;;;;;;;;;;;;5074206;28;20295;-87
2022/11/29 01:32:41;;;;;;;;;;;;;;;;;;5056362;28;19969;-86
2022/11/29 01:35:06;;;;;;;;;;;;;;;;;;5075715;28;19916;-85
2022/11/29 01:37:32;;;;;;;;;;;;;;;;;;5055739;28;19920;-85
2022/11/29 01:39:57;;;;;;;;;;;;;;;;;;5074143;28;19917;-84
2022/11/29 01:42:23;;;;;;;;;;;;;;;;;;5055715;28;20011;-86
2022/11/29 01:44:48;;;;;;;;;;;;;;;;;;5074080;28;19916;-88
2022/11/29 01:47:14;;;;;;;;;;;;;;;;;;5073639;28;19912;-86
2022/11/29 01:49:41;;;;;;;;;;;;;;;;;;5073972;28;20276;-85
2022/11/29 01:52:18;;;;;;;;;;;;;;;;;;5074085;28;20387;-85
2022/11/29 01:54:45;;;;;;;;;;;;;;;;;;5073810;28;20012;-86
2022/11/29 01:57:12;;;;;;;;;;;;;;;;;;5055691;28;20376;-85
2022/11/29 01:59:41;;;;;;;;;;;;;;;;;;5055878;28;20376;-86
2022/11/29 02:02:30;;;;;;;;;;;;;;;;;;5073610;28;19939;-85
2022/11/29 02:04:56;;;;;;;;;;;;;;;;;;5067964;28;20441;-86
2022/11/29 02:07:21;;;;;;;;;;;;;;;;;;5076474;28;20388;-85
2022/11/29 02:09:47;;;;;;;;;;;;;;;;;;5074257;28;19958;-85
2022/11/29 02:12:28;;;;;;;;;;;;;;;;;;5077775;28;19913;-85
2022/11/29 02:14:59;;;;;;;;;;;;;;;;;;5067210;28;19931;-85
2022/11/29 02:17:43;;;;;;;;;;;;;;;;;;5072792;28;19921;-85
2022/11/29 02:20:35;;;;;;;;;;;;;;;;;;5065271;28;20003;-86
2022/11/29 02:23:15;;;;;;;;;;;;;;;;;;5073200;28;19924;-85
2022/11/29 02:25:56;;;;;;;;;;;;;;;;;;5055489;28;19962;-85
2022/11/29 02:28:29;;;;;;;;;;;;;;;;;;5055417;28;19966;-86
2022/11/29 02:30:58;;;;;;;;;;;;;;;;;;5073361;28;20011;-85
2022/11/29 02:33:44;;;;;;;;;;;;;;;;;;5054806;28;19960;-84
2022/11/29 02:36:28;;;;;;;;;;;;;;;;;;5044189;28;19955;-86
2022/11/29 02:38:59;;;;;;;;;;;;;;;;;;5072847;28;19958;-85
2022/11/29 02:41:29;;;;;;;;;;;;;;;;;;5072730;28;20440;-86
2022/11/29 02:44:00;;;;;;;;;;;;;;;;;;5072885;28;19916;-84
2022/11/29 02:46:35;;;;;;;;;;;;;;;;;;5054799;28;20283;-84
2022/11/29 02:49:10;;;;;;;;;;;;;;;;;;5073065;28;19920;-85
2022/11/29 02:51:43;;;;;;;;;;;;;;;;;;5072454;28;19920;-86
2022/11/29 02:54:20;;;;;;;;;;;;;;;;;;5073023;28;19916;-84
2022/11/29 02:56:50;;;;;;;;;;;;;;;;;;5055291;28;20317;-84
2022/11/29 02:59:34;;;;;;;;;;;;;;;;;;5054650;28;20380;-86
2022/11/29 03:02:00;;;;;;;;;;;;;;;;;;5038265;28;19920;-85
2022/11/29 03:04:31;;;;;;;;;;;;;;;;;;5054955;28;19931;-84
2022/11/29 03:07:15;;;;;;;;;;;;;;;;;;5054698;28;19952;-85
2022/11/29 03:09:44;;;;;;;;;;;;;;;;;;5053879;28;19920;-85
2022/11/29 03:12:24;;;;;;;;;;;;;;;;;;5072714;28;19963;-85
2022/11/29 03:14:53;;;;;;;;;;;;;;;;;;5072740;28;19916;-85
2022/11/29 03:17:35;;;;;;;;;;;;;;;;;;5054409;28;20341;-85
2022/11/29 03:20:20;;;;;;;;;;;;;;;;;;5054569;28;19916;-85
2022/11/29 03:22:53;;;;;;;;;;;;;;;;;;5070956;28;19923;-85
2022/11/29 03:25:19;;;;;;;;;;;;;;;;;;5072381;28;19917;-87
2022/11/29 03:27:44;;;;;;;;;;;;;;;;;;5072479;28;19939;-86
2022/11/29 03:30:12;;;;;;;;;;;;;;;;;;5054497;28;19916;-85
2022/11/29 03:32:37;;;;;;;;;;;;;;;;;;5054516;28;19967;-85
2022/11/29 03:35:05;;;;;;;;;;;;;;;;;;5055342;28;19916;-85
2022/11/29 03:37:37;;;;;;;;;;;;;;;;;;5058440;28;19917;-85
2022/11/29 03:40:02;;;;;;;;;;;;;;;;;;5076438;28;19963;-86
2022/11/29 03:42:40;;;;;;;;;;;;;;;;;;5076230;28;19967;-85
2022/11/29 03:45:22;;;;;;;;;;;;;;;;;;5076462;28;19917;-85
2022/11/29 03:47:50;;;;;;;;;;;;;;;;;;5076342;28;19916;-84
2022/11/29 03:50:20;;;;;;;;;;;;;;;;;;5079373;28;20386;-84
2022/11/29 03:52:51;;;;;;;;;;;;;;;;;;5078908;28;20281;-86
2022/11/29 03:55:35;;;;;;;;;;;;;;;;;;5075769;28;20078;-87
2022/11/29 03:58:00;;;;;;;;;;;;;;;;;;5057828;28;19923;-86
2022/11/29 04:00:29;;;;;;;;;;;;;;;;;;5076136;28;20342;-85
2022/11/29 04:02:54;;;;;;;;;;;;;;;;;;5077518;28;19916;-85
2022/11/29 04:05:43;;;;;;;;;;;;;;;;;;5076489;22;20419;-87
2022/11/29 04:08:27;;;;;;;;;;;;;;;;;;5038613;28;20349;-85
2022/11/29 04:11:12;;;;;;;;;;;;;;;;;;5041464;28;19921;-86
2022/11/29 04:13:37;;;;;;;;;;;;;;;;;;5055552;28;20287;-84
2022/11/29 04:16:02;;;;;;;;;;;;;;;;;;5055685;28;19921;-85
2022/11/29 04:18:46;;;;;;;;;;;;;;;;;;5055418;28;19920;-85
2022/11/29 04:21:32;;;;;;;;;;;;;;;;;;5055316;28;19921;-85
2022/11/29 04:24:06;;;;;;;;;;;;;;;;;;5055459;28;19925;-85
2022/11/29 04:26:50;;;;;;;;;;;;;;;;;;5037434;28;20368;-85
2022/11/29 04:29:34;;;;;;;;;;;;;;;;;;5032347;28;19964;-85
2022/11/29 04:32:01;;;;;;;;;;;;;;;;;;5055142;28;19917;-86
2022/11/29 04:34:39;;;;;;;;;;;;;;;;;;5055316;28;19923;-85
2022/11/29 04:37:23;;;;;;;;;;;;;;;;;;5053545;28;19956;-86
2022/11/29 04:39:48;;;;;;;;;;;;;;;;;;5041259;28;19952;-86
2022/11/29 04:42:32;;;;;;;;;;;;;;;;;;5059342;28;20041;-85
2022/11/29 04:44:57;;;;;;;;;;;;;;;;;;5059188;28;19964;-85
2022/11/29 04:47:46;;;;;;;;;;;;;;;;;;5041260;28;19916;-86
2022/11/29 04:50:14;;;;;;;;;;;;;;;;;;5016321;28;20032;-85
2022/11/29 04:52:58;;;;;;;;;;;;;;;;;;5017802;28;19924;-86
2022/11/29 04:55:42;;;;;;;;;;;;;;;;;;5029510;28;19925;-85
2022/11/29 04:58:14;;;;;;;;;;;;;;;;;;5053761;28;20261;-85
2022/11/29 05:00:44;;;;;;;;;;;;;;;;;;5054352;28;19952;-85
2022/11/29 05:03:44;;;;;;;;;;;;;;;;;;5055044;28;20008;-85
2022/11/29 05:06:17;;;;;;;;;;;;;;;;;;4967084;28;19965;-84
2022/11/29 05:08:42;;;;;;;;;;;;;;;;;;4973896;28;19918;-85
2022/11/29 05:11:26;;;;;;;;;;;;;;;;;;4973591;28;19953;-85
2022/11/29 05:14:04;;;;;;;;;;;;;;;;;;4973678;28;20053;-84
2022/11/29 05:16:30;;;;;;;;;;;;;;;;;;4973690;28;20017;-85
2022/11/29 05:19:13;;;;;;;;;;;;;;;;;;4973554;28;20010;-85
2022/11/29 05:21:57;;;;;;;;;;;;;;;;;;4973476;28;19922;-86
2022/11/29 05:24:28;;;;;;;;;;;;;;;;;;4972280;28;19922;-85
2022/11/29 05:27:00;;;;;;;;;;;;;;;;;;4973587;28;19928;-85
2022/11/29 05:29:44;;;;;;;;;;;;;;;;;;4957186;28;19922;-86
2022/11/29 05:32:28;;;;;;;;;;;;;;;;;;4957098;28;20353;-85
2022/11/29 05:34:56;;;;;;;;;;;;;;;;;;4966645;28;19930;-87
2022/11/29 05:37:37;;;;;;;;;;;;;;;;;;4956910;28;19918;-85
2022/11/29 05:40:14;;;;;;;;;;;;;;;;;;5009530;28;19924;-86
2022/11/29 05:42:49;;;;;;;;;;;;;;;;;;5074196;28;19924;-86
2022/11/29 05:45:26;;;;;;;;;;;;;;;;;;5074231;28;19923;-87
2022/11/29 05:48:04;;;;;;;;;;;;;;;;;;5055827;28;19917;-85
2022/11/29 05:50:36;;;;;;;;;;;;;;;;;;5074036;28;19917;-86
2022/11/29 05:53:22;;;;;;;;;;;;;;;;;;5074055;28;20031;-87
2022/11/29 05:55:57;;;;;;;;;;;;;;;;;;5073966;28;19920;-86
2022/11/29 05:58:31;;;;;;;;;;;;;;;;;;5072573;28;19917;-86
2022/11/29 06:01:19;;;;;;;;;;;;;;;;;;5055880;28;20024;-86
2022/11/29 06:03:52;;;;;;;;;;;;;;;;;;5039508;28;19916;-85
2022/11/29 06:06:21;;;;;;;;;;;;;;;;;;5055795;28;20019;-85
2022/11/29 06:09:03;;;;;;;;;;;;;;;;;;5073537;28;19916;-85
2022/11/29 06:11:34;;;;;;;;;;;;;;;;;;5055504;28;19923;-85
2022/11/29 06:14:07;;;;;;;;;;;;;;;;;;5073627;28;20383;-87
2022/11/29 06:16:40;;;;;;;;;;;;;;;;;;5073584;28;19916;-87
2022/11/29 06:19:20;;;;;;;;;;;;;;;;;;5073290;28;20087;-87
2022/11/29 06:21:55;;;;;;;;;;;;;;;;;;5080110;28;19917;-86
2022/11/29 06:24:40;;;;;;;;;;;;;;;;;;5071556;28;19935;-86
2022/11/29 06:27:18;;;;;;;;;;;;;;;;;;5083086;28;20011;-87
2022/11/29 06:29:48;;;;;;;;;;;;;;;;;;5093906;28;19912;-87
2022/11/29 06:32:32;;;;;;;;;;;;;;;;;;5086457;28;19970;-86
2022/11/29 06:35:04;;;;;;;;;;;;;;;;;;5083403;28;19916;-86
2022/11/29 06:37:36;;;;;;;;;;;;;;;;;;5058676;28;19924;-85
2022/11/29 06:40:02;;;;;;;;;;;;;;;;;;5055199;28;19923;-87
2022/11/29 06:42:28;;;;;;;;;;;;;;;;;;5055432;28;19967;-85
2022/11/29 06:44:53;;;;;;;;;;;;;;;;;;5073007;28;19966;-85
2022/11/29 06:47:19;;;;;;;;;;;;;;;;;;5073005;28;19918;-86
2022/11/29 06:49:55;;;;;;;;;;;;;;;;;;5073286;28;19962;-86
2022/11/29 06:52:57;;;;;;;;;;;;;;;;;;5054999;28;19912;-86
2022/11/29 06:55:41;;;;;;;;;;;;;;;;;;4974818;28;19918;-86
2022/11/29 06:58:31;;;;;;;;;;;;;;;;;;4991319;28;19937;-86
2022/11/29 07:00:59;;;;;;;;;;;;;;;;;;4974890;28;19918;-86
2022/11/29 07:03:25;;;;;;;;;;;;;;;;;;4991052;28;19929;-87
2022/11/29 07:05:50;;;;;;;;;;;;;;;;;;4990633;28;19921;-87
2022/11/29 07:08:20;;;;;;;;;;;;;;;;;;4991077;28;20236;-87
2022/11/29 07:10:48;;;;;;;;;;;;;;;;;;4990533;28;19913;-86
2022/11/29 07:13:14;;;;;;;;;;;;;;;;;;4991165;28;19921;-87
2022/11/29 07:15:43;;;;;;;;;;;;;;;;;;4990952;28;19928;-87
2022/11/29 07:18:23;;;;;;;;;;;;;;;;;;4991210;28;19924;-86
2022/11/29 07:20:49;;;;;;;;;;;;;;;;;;4990836;28;19936;-87
2022/11/29 07:23:30;;;;;;;;;;;;;;;;;;4990920;28;20381;-86
2022/11/29 07:25:55;;;;;;;;;;;;;;;;;;4991114;28;19940;-86
2022/11/29 07:28:33;;;;;;;;;;;;;;;;;;4998946;28;20385;-85
2022/11/29 07:31:08;;;;;;;;;;;;;;;;;;5072354;28;19924;-85
2022/11/29 07:33:40;;;;;;;;;;;;;;;;;;5072286;28;20010;-88
2022/11/29 15:30:34;;;;;;;;;;;;;;;;;;5091085;27;19917;-86
2022/11/29 15:33:00;;;;;;;;;;;;;;;;;;5084643;28;20470;-85
2022/11/29 15:35:26;;;;;;;;;;;;;;;;;;5085661;28;19989;-85
2022/11/29 15:41:33;;;;;;;;;;;;;;;;;;5088734;28;20005;-85
2022/11/29 15:43:52;;;;;;;;;;;;;;;;;;5085583;28;19927;-84
2022/11/29 15:46:18;;;;;;;;;;;;;;;;;;5086221;28;19924;-85
2022/11/29 15:48:44;;;;;;;;;;;;;;;;;;5087600;28;20065;-85
2022/11/29 15:51:15;;;;;;;;;;;;;;;;;;5087695;28;19930;-85
2022/11/29 15:53:45;;;;;;;;;;;;;;;;;;5086456;28;19928;-85
2022/11/29 15:56:31;;;;;;;;;;;;;;;;;;5086184;28;19929;-84
2022/11/29 15:58:59;;;;;;;;;;;;;;;;;;5095136;28;19984;-85
2022/11/29 16:01:25;;;;;;;;;;;;;;;;;;5093406;28;19924;-85
2022/11/29 16:03:51;;;;;;;;;;;;;;;;;;5085955;28;20436;-86
2022/11/29 16:06:23;;;;;;;;;;;;;;;;;;5084389;28;19977;-85
2022/11/29 16:08:48;;;;;;;;;;;;;;;;;;5085674;28;19921;-86
2022/11/29 16:11:16;;;;;;;;;;;;;;;;;;5083258;28;19920;-85
2022/11/29 16:13:57;;;;;;;;;;;;;;;;;;5085690;28;19976;-84
2022/11/29 16:16:22;;;;;;;;;;;;;;;;;;5087365;28;20382;-85
2022/11/29 16:18:51;;;;;;;;;;;;;;;;;;5088726;28;20058;-86
2022/11/29 16:21:24;;;;;;;;;;;;;;;;;;5085441;28;19927;-86
2022/11/29 16:23:50;;;;;;;;;;;;;;;;;;5085148;28;20327;-85
2022/11/29 16:26:22;;;;;;;;;;;;;;;;;;5084786;28;20054;-84
2022/11/29 16:28:49;;;;;;;;;;;;;;;;;;5084138;28;19931;-86
2022/11/29 16:31:19;;;;;;;;;;;;;;;;;;5086852;28;19920;-85
2022/11/29 16:33:46;;;;;;;;;;;;;;;;;;5087959;28;19920;-87
2022/11/29 16:36:13;;;;;;;;;;;;;;;;;;5088392;28;20446;-85
2022/11/29 16:38:50;;;;;;;;;;;;;;;;;;5089150;28;19920;-85
2022/11/29 16:41:21;;;;;;;;;;;;;;;;;;5077847;28;19928;-87
2022/11/29 16:43:52;;;;;;;;;;;;;;;;;;5079401;28;19916;-85
2022/11/29 16:46:21;;;;;;;;;;;;;;;;;;5075632;28;19921;-85
2022/11/29 16:48:47;;;;;;;;;;;;;;;;;;5072606;28;19920;-85
2022/11/29 16:51:12;;;;;;;;;;;;;;;;;;5074009;28;19920;-87
2022/11/29 16:53:42;;;;;;;;;;;;;;;;;;5074520;28;19920;-86
2022/11/29 16:56:09;;;;;;;;;;;;;;;;;;5072053;28;19951;-85
2022/11/29 16:58:35;;;;;;;;;;;;;;;;;;5071108;28;20442;-86
2022/11/29 17:01:14;;;;;;;;;;;;;;;;;;5073772;28;20018;-86
2022/11/29 17:03:39;;;;;;;;;;;;;;;;;;5058763;28;19928;-86
2022/11/29 17:06:05;;;;;;;;;;;;;;;;;;5070939;28;19927;-86
2022/11/29 17:08:30;;;;;;;;;;;;;;;;;;5074390;28;19974;-86
2022/11/29 17:10:56;;;;;;;;;;;;;;;;;;5073523;28;19916;-85
2022/11/29 17:13:21;;;;;;;;;;;;;;;;;;5066385;28;19921;-84
2022/11/29 17:15:47;;;;;;;;;;;;;;;;;;5065658;28;19916;-86
2022/11/29 17:18:12;;;;;;;;;;;;;;;;;;5068616;28;20371;-86
2022/11/29 17:20:37;;;;;;;;;;;;;;;;;;5094369;28;19921;-87
2022/11/29 17:23:03;;;;;;;;;;;;;;;;;;5059486;28;19932;-87
2022/11/29 17:25:28;;;;;;;;;;;;;;;;;;5060459;28;19975;-85
2022/11/29 17:27:54;;;;;;;;;;;;;;;;;;5058412;28;20358;-87
2022/11/29 17:30:20;;;;;;;;;;;;;;;;;;5060297;28;19932;-87
2022/11/29 17:32:45;;;;;;;;;;;;;;;;;;5055329;28;19917;-86
2022/11/29 17:35:10;;;;;;;;;;;;;;;;;;5068378;28;19921;-84
2022/11/29 17:37:36;;;;;;;;;;;;;;;;;;5063024;28;19920;-84
2022/11/29 17:40:01;;;;;;;;;;;;;;;;;;5053986;28;19924;-87
2022/11/29 17:42:27;;;;;;;;;;;;;;;;;;5067111;28;19938;-85
2022/11/29 17:44:52;;;;;;;;;;;;;;;;;;5076363;28;19916;-85
2022/11/29 17:47:17;;;;;;;;;;;;;;;;;;5076053;28;19916;-87
2022/11/29 17:49:43;;;;;;;;;;;;;;;;;;5065859;28;19921;-86
2022/11/29 17:52:08;;;;;;;;;;;;;;;;;;5053224;28;20368;-86
2022/11/29 17:54:34;;;;;;;;;;;;;;;;;;5067532;28;19970;-84
2022/11/29 17:57:02;;;;;;;;;;;;;;;;;;5054811;28;19923;-85
2022/11/29 17:59:27;;;;;;;;;;;;;;;;;;5064649;28;20019;-85
2022/11/29 18:01:53;;;;;;;;;;;;;;;;;;5075742;28;19979;-85
2022/11/29 18:04:18;;;;;;;;;;;;;;;;;;5076408;28;20348;-86
2022/11/29 18:06:48;;;;;;;;;;;;;;;;;;5077789;28;19916;-85
2022/11/29 18:09:13;;;;;;;;;;;;;;;;;;5074085;28;20224;-85
2022/11/29 18:11:40;;;;;;;;;;;;;;;;;;5074341;28;19923;-85
2022/11/29 18:14:09;;;;;;;;;;;;;;;;;;5074756;28;19917;-85
2022/11/29 18:16:34;;;;;;;;;;;;;;;;;;5069590;28;20003;-85
2022/11/29 18:19:04;;;;;;;;;;;;;;;;;;5054070;28;20369;-85
2022/11/29 18:21:30;;;;;;;;;;;;;;;;;;5054359;28;19927;-84
2022/11/29 18:23:57;;;;;;;;;;;;;;;;;;5065216;28;19917;-85
2022/11/29 18:26:23;;;;;;;;;;;;;;;;;;5065614;28;19980;-85
2022/11/29 18:28:49;;;;;;;;;;;;;;;;;;5077021;28;19928;-84
2022/11/29 18:31:19;;;;;;;;;;;;;;;;;;5072782;28;19916;-88
2022/11/29 18:33:45;;;;;;;;;;;;;;;;;;5090411;28;19917;-86
2022/11/29 18:36:13;;;;;;;;;;;;;;;;;;5081852;28;19916;-85
2022/11/29 18:38:39;;;;;;;;;;;;;;;;;;5086404;28;19959;-85
2022/11/29 18:41:06;;;;;;;;;;;;;;;;;;5080091;28;19917;-86
2022/11/29 18:43:31;;;;;;;;;;;;;;;;;;5079381;28;20372;-86
2022/11/29 18:45:57;;;;;;;;;;;;;;;;;;5078932;28;19916;-84
2022/11/29 18:48:22;;;;;;;;;;;;;;;;;;5078225;28;19926;-85
2022/11/29 18:50:47;;;;;;;;;;;;;;;;;;5077015;28;19917;-84
2022/11/29 18:53:13;;;;;;;;;;;;;;;;;;5077575;28;19920;-85
2022/11/29 18:55:38;;;;;;;;;;;;;;;;;;5068847;28;19975;-86
2022/11/29 18:58:05;;;;;;;;;;;;;;;;;;5071494;28;19917;-85
2022/11/29 19:00:30;;;;;;;;;;;;;;;;;;5063490;28;20379;-85
2022/11/29 19:02:56;;;;;;;;;;;;;;;;;;5053351;28;19965;-85
2022/11/29 19:05:21;;;;;;;;;;;;;;;;;;5059444;28;20033;-83
2022/11/29 19:07:47;;;;;;;;;;;;;;;;;;5058421;28;19932;-85
2022/11/29 19:10:12;;;;;;;;;;;;;;;;;;5061263;28;20370;-87
2022/11/29 19:12:38;;;;;;;;;;;;;;;;;;5057168;28;19928;-85
2022/11/29 19:15:03;;;;;;;;;;;;;;;;;;5058054;28;20283;-86
2022/11/29 19:17:29;;;;;;;;;;;;;;;;;;5062615;28;20399;-85
2022/11/29 19:19:54;;;;;;;;;;;;;;;;;;5054792;28;19925;-86
2022/11/29 19:22:19;;;;;;;;;;;;;;;;;;5070492;28;19928;-87
2022/11/29 19:24:45;;;;;;;;;;;;;;;;;;5047088;28;19929;-86
2022/11/29 19:27:10;;;;;;;;;;;;;;;;;;5055514;28;19963;-85
2022/11/29 19:29:36;;;;;;;;;;;;;;;;;;5072603;28;20018;-85
2022/11/29 19:32:03;;;;;;;;;;;;;;;;;;5072389;28;19924;-85
2022/11/29 19:34:28;;;;;;;;;;;;;;;;;;5086189;28;20124;-86
2022/11/29 19:36:53;;;;;;;;;;;;;;;;;;5063198;28;20729;-88
2022/11/29 19:39:19;;;;;;;;;;;;;;;;;;5087981;28;20493;-87
2022/11/29 19:41:45;;;;;;;;;;;;;;;;;;5077565;28;20033;-86
2022/11/29 19:44:11;;;;;;;;;;;;;;;;;;5076608;28;19928;-87
2022/11/29 19:46:38;;;;;;;;;;;;;;;;;;5083423;28;19928;-85
2022/11/29 19:49:05;;;;;;;;;;;;;;;;;;5076578;28;20482;-87
2022/11/29 19:51:30;;;;;;;;;;;;;;;;;;5072992;28;19928;-86
2022/11/29 19:54:01;;;;;;;;;;;;;;;;;;5073880;28;20302;-84
2022/11/29 19:56:27;;;;;;;;;;;;;;;;;;5087738;28;19917;-84
2022/11/29 19:58:53;;;;;;;;;;;;;;;;;;5081047;28;19927;-85
2022/11/29 20:01:23;;;;;;;;;;;;;;;;;;5088804;28;19920;-85
2022/11/29 20:03:49;;;;;;;;;;;;;;;;;;5070177;28;19923;-85
2022/11/29 20:06:14;;;;;;;;;;;;;;;;;;5069047;28;19924;-85
2022/11/29 20:08:41;;;;;;;;;;;;;;;;;;5087970;28;20755;-85
2022/11/29 20:11:08;;;;;;;;;;;;;;;;;;5071773;28;20376;-85
2022/11/29 20:13:34;;;;;;;;;;;;;;;;;;5092802;28;19920;-85
2022/11/29 20:16:08;;;;;;;;;;;;;;;;;;5093486;28;19922;-85
2022/11/29 20:18:34;;;;;;;;;;;;;;;;;;5102889;28;19927;-86
2022/11/29 20:21:03;;;;;;;;;;;;;;;;;;5090804;28;19917;-86
2022/11/29 20:23:29;;;;;;;;;;;;;;;;;;5081672;28;19938;-85
2022/11/29 20:25:54;;;;;;;;;;;;;;;;;;5086387;28;20374;-86
2022/11/29 20:28:20;;;;;;;;;;;;;;;;;;5080708;28;20294;-85
2022/11/29 20:30:45;;;;;;;;;;;;;;;;;;5079471;28;20394;-87
2022/11/29 20:33:13;;;;;;;;;;;;;;;;;;5082557;28;19916;-86
2022/11/29 20:35:39;;;;;;;;;;;;;;;;;;5086904;28;20139;-86
2022/11/29 20:38:10;;;;;;;;;;;;;;;;;;5082685;28;20398;-85
2022/11/29 20:40:41;;;;;;;;;;;;;;;;;;5093404;28;19916;-86
2022/11/29 20:43:17;;;;;;;;;;;;;;;;;;5084902;28;19920;-86
2022/11/29 20:45:43;;;;;;;;;;;;;;;;;;5076918;28;19979;-85
2022/11/29 20:48:21;;;;;;;;;;;;;;;;;;5080429;28;20446;-86
2022/11/29 20:50:52;;;;;;;;;;;;;;;;;;5083295;28;19916;-86
2022/11/29 20:53:34;;;;;;;;;;;;;;;;;;5083433;28;19920;-86
2022/11/29 20:56:00;;;;;;;;;;;;;;;;;;5095451;28;19916;-85
2022/11/29 20:58:25;;;;;;;;;;;;;;;;;;5065046;28;19987;-87
2022/11/29 21:00:52;;;;;;;;;;;;;;;;;;5056488;28;20039;-86
2022/11/29 21:03:18;;;;;;;;;;;;;;;;;;5056353;28;19916;-87
2022/11/29 21:05:44;;;;;;;;;;;;;;;;;;5074693;28;19932;-86
2022/11/29 21:08:09;;;;;;;;;;;;;;;;;;5056394;28;19955;-86
2022/11/29 21:10:35;;;;;;;;;;;;;;;;;;5074698;28;20383;-86
2022/11/29 21:13:00;;;;;;;;;;;;;;;;;;5074368;28;19989;-86
2022/11/29 21:15:26;;;;;;;;;;;;;;;;;;5075325;28;19916;-86
2022/11/29 21:17:51;;;;;;;;;;;;;;;;;;5098745;28;19916;-87
2022/11/29 21:20:21;;;;;;;;;;;;;;;;;;5074159;28;19917;-87
2022/11/29 21:22:52;;;;;;;;;;;;;;;;;;5089945;28;20003;-86
2022/11/29 21:25:24;;;;;;;;;;;;;;;;;;5076013;28;19916;-86
2022/11/29 21:27:50;;;;;;;;;;;;;;;;;;5094309;28;19923;-85
2022/11/29 21:30:19;;;;;;;;;;;;;;;;;;5086745;28;19970;-87
2022/11/29 21:32:45;;;;;;;;;;;;;;;;;;5074088;28;19921;-86
2022/11/29 21:35:10;;;;;;;;;;;;;;;;;;5073808;28;19974;-87
2022/11/29 21:37:36;;;;;;;;;;;;;;;;;;5073972;28;19926;-87
2022/11/29 21:40:02;;;;;;;;;;;;;;;;;;5073891;28;20394;-86
2022/11/29 21:42:27;;;;;;;;;;;;;;;;;;5055838;28;19962;-86
2022/11/29 21:44:53;;;;;;;;;;;;;;;;;;5073978;28;19924;-86
2022/11/29 21:47:18;;;;;;;;;;;;;;;;;;5073522;28;19923;-87
2022/11/29 21:49:45;;;;;;;;;;;;;;;;;;5055613;28;19924;-87
2022/11/29 21:52:11;;;;;;;;;;;;;;;;;;5073575;28;19917;-86
2022/11/29 21:54:36;;;;;;;;;;;;;;;;;;5073627;28;19920;-85
2022/11/29 21:57:02;;;;;;;;;;;;;;;;;;5073606;28;19926;-85
2022/11/29 21:59:28;;;;;;;;;;;;;;;;;;5073434;28;20383;-85
2022/11/29 22:01:53;;;;;;;;;;;;;;;;;;5055376;28;20294;-86
2022/11/29 22:04:19;;;;;;;;;;;;;;;;;;5073235;28;19916;-87
2022/11/29 22:06:45;;;;;;;;;;;;;;;;;;5055447;28;20387;-86
2022/11/29 22:09:11;;;;;;;;;;;;;;;;;;5073030;28;20019;-87
2022/11/29 22:11:36;;;;;;;;;;;;;;;;;;5073162;28;19955;-86
2022/11/29 22:14:12;;;;;;;;;;;;;;;;;;5073140;28;20283;-86
2022/11/29 22:16:38;;;;;;;;;;;;;;;;;;5055278;28;20002;-85
2022/11/29 22:19:03;;;;;;;;;;;;;;;;;;5073040;28;20023;-86
2022/11/29 22:21:28;;;;;;;;;;;;;;;;;;5073076;28;19920;-86
2022/11/29 22:23:54;;;;;;;;;;;;;;;;;;5073133;28;19916;-87
2022/11/29 22:26:19;;;;;;;;;;;;;;;;;;5072662;28;19995;-87
2022/11/29 22:28:44;;;;;;;;;;;;;;;;;;5054683;28;19921;-87
2022/11/29 22:31:11;;;;;;;;;;;;;;;;;;5057379;28;19970;-85
2022/11/29 22:33:36;;;;;;;;;;;;;;;;;;5072909;28;20020;-86
2022/11/29 22:36:06;;;;;;;;;;;;;;;;;;5074034;28;20015;-86
2022/11/29 22:38:31;;;;;;;;;;;;;;;;;;5072562;28;20015;-86
2022/11/29 22:41:03;;;;;;;;;;;;;;;;;;5072710;28;20011;-87
2022/11/29 22:43:29;;;;;;;;;;;;;;;;;;5072540;28;20311;-86
2022/11/29 22:45:54;;;;;;;;;;;;;;;;;;5074413;28;19916;-85
2022/11/29 22:48:20;;;;;;;;;;;;;;;;;;5071937;28;20031;-85
2022/11/29 22:50:45;;;;;;;;;;;;;;;;;;5072602;28;19960;-87
2022/11/29 22:53:10;;;;;;;;;;;;;;;;;;5054506;28;19921;-86
2022/11/29 22:55:36;;;;;;;;;;;;;;;;;;5072566;28;19921;-86
2022/11/29 22:58:02;;;;;;;;;;;;;;;;;;5072400;28;20029;-87
2022/11/29 23:00:27;;;;;;;;;;;;;;;;;;5072373;28;19920;-86
2022/11/29 23:02:55;;;;;;;;;;;;;;;;;;5072491;28;19920;-87
2022/11/29 23:05:20;;;;;;;;;;;;;;;;;;5054249;28;19921;-86
2022/11/29 23:07:46;;;;;;;;;;;;;;;;;;5072703;28;20260;-87
2022/11/29 23:10:11;;;;;;;;;;;;;;;;;;5072630;28;19920;-87
2022/11/29 23:12:36;;;;;;;;;;;;;;;;;;5072951;28;20414;-86
2022/11/29 23:15:02;;;;;;;;;;;;;;;;;;5054539;28;19917;-86
2022/11/29 23:17:27;;;;;;;;;;;;;;;;;;5054438;28;19928;-86
2022/11/29 23:19:53;;;;;;;;;;;;;;;;;;5072531;28;19921;-86
2022/11/29 23:22:18;;;;;;;;;;;;;;;;;;5072301;28;20334;-86
2022/11/29 23:24:44;;;;;;;;;;;;;;;;;;5089053;28;19925;-85
2022/11/29 23:27:09;;;;;;;;;;;;;;;;;;5053989;28;19916;-86
2022/11/29 23:29:34;;;;;;;;;;;;;;;;;;5112554;28;19995;-86
2022/11/29 23:32:00;;;;;;;;;;;;;;;;;;5102534;28;19939;-85
2022/11/29 23:34:25;;;;;;;;;;;;;;;;;;5104396;28;19959;-86
2022/11/29 23:36:51;;;;;;;;;;;;;;;;;;5095713;28;19923;-85
2022/11/29 23:39:16;;;;;;;;;;;;;;;;;;5094123;28;19923;-84
2022/11/29 23:41:41;;;;;;;;;;;;;;;;;;5074579;28;19939;-85
2022/11/29 23:44:08;;;;;;;;;;;;;;;;;;5092496;28;19923;-85
2022/11/29 23:46:34;;;;;;;;;;;;;;;;;;5092177;28;19989;-86
2022/11/29 23:48:59;;;;;;;;;;;;;;;;;;5074040;28;20660;-86
2022/11/29 23:51:25;;;;;;;;;;;;;;;;;;5078027;28;19969;-86
2022/11/29 23:53:53;;;;;;;;;;;;;;;;;;5096231;28;19919;-86
2022/11/29 23:56:19;;;;;;;;;;;;;;;;;;5077975;28;20418;-85
2022/11/29 23:58:45;;;;;;;;;;;;;;;;;;5096270;28;19920;-86
